sensor_id;sensor_type;location;lat;lon;timestamp;temperature;humidity
16744;DHT22;71724;-33.900;151.182;2023-11-18T00:00:01;23.20;56.90
16744;DHT22;71724;-33.900;151.182;2023-11-18T00:02:37;23.30;57.20
16744;DHT22;71724;-33.900;151.182;2023-11-18T00:05:05;23.30;56.80
16744;DHT22;71724;-33.900;151.182;2023-11-18T00:07:33;23.30;56.90
16744;DHT22;71724;-33.900;151.182;2023-11-18T00:10:01;23.40;56.40
16744;DHT22;71724;-33.900;151.182;2023-11-18T00:12:28;23.60;56.40
16744;DHT22;71724;-33.900;151.182;2023-11-18T00:14:57;23.60;56.40
16744;DHT22;71724;-33.900;151.182;2023-11-18T00:17:24;23.70;56.10
16744;DHT22;71724;-33.900;151.182;2023-11-18T00:19:52;23.80;56.00
16744;DHT22;71724;-33.900;151.182;2023-11-18T00:22:20;23.90;55.20
16744;DHT22;71724;-33.900;151.182;2023-11-18T00:24:47;24.00;54.90
16744;DHT22;71724;-33.900;151.182;2023-11-18T00:27:15;23.90;54.50
16744;DHT22;71724;-33.900;151.182;2023-11-18T00:29:42;23.90;54.30
16744;DHT22;71724;-33.900;151.182;2023-11-18T00:32:10;23.90;54.60
16744;DHT22;71724;-33.900;151.182;2023-11-18T00:34:38;23.90;54.90
16744;DHT22;71724;-33.900;151.182;2023-11-18T00:37:05;23.80;54.60
16744;DHT22;71724;-33.900;151.182;2023-11-18T00:39:34;23.70;54.40
16744;DHT22;71724;-33.900;151.182;2023-11-18T00:42:01;23.70;54.80
16744;DHT22;71724;-33.900;151.182;2023-11-18T00:44:29;23.60;55.00
16744;DHT22;71724;-33.900;151.182;2023-11-18T00:46:56;23.50;55.30
16744;DHT22;71724;-33.900;151.182;2023-11-18T00:49:25;23.40;55.40
16744;DHT22;71724;-33.900;151.182;2023-11-18T00:51:52;23.30;56.10
16744;DHT22;71724;-33.900;151.182;2023-11-18T00:54:20;23.20;56.10
16744;DHT22;71724;-33.900;151.182;2023-11-18T00:56:47;23.20;55.90
16744;DHT22;71724;-33.900;151.182;2023-11-18T00:59:14;23.30;56.50
16744;DHT22;71724;-33.900;151.182;2023-11-18T01:01:42;23.40;56.10
16744;DHT22;71724;-33.900;151.182;2023-11-18T01:04:10;23.50;56.20
16744;DHT22;71724;-33.900;151.182;2023-11-18T01:06:37;23.70;55.20
16744;DHT22;71724;-33.900;151.182;2023-11-18T01:09:04;23.80;54.60
16744;DHT22;71724;-33.900;151.182;2023-11-18T01:11:33;23.80;54.60
16744;DHT22;71724;-33.900;151.182;2023-11-18T01:14:06;23.90;54.40
16744;DHT22;71724;-33.900;151.182;2023-11-18T01:16:34;23.90;54.30
16744;DHT22;71724;-33.900;151.182;2023-11-18T01:19:01;24.00;54.60
16744;DHT22;71724;-33.900;151.182;2023-11-18T01:21:29;24.10;54.40
16744;DHT22;71724;-33.900;151.182;2023-11-18T01:23:56;24.20;53.80
16744;DHT22;71724;-33.900;151.182;2023-11-18T01:26:23;24.20;54.10
16744;DHT22;71724;-33.900;151.182;2023-11-18T01:28:51;24.30;54.00
16744;DHT22;71724;-33.900;151.182;2023-11-18T01:31:18;24.30;53.90
16744;DHT22;71724;-33.900;151.182;2023-11-18T01:33:45;24.40;53.80
16744;DHT22;71724;-33.900;151.182;2023-11-18T01:36:13;24.40;52.60
16744;DHT22;71724;-33.900;151.182;2023-11-18T01:38:42;24.50;52.90
16744;DHT22;71724;-33.900;151.182;2023-11-18T01:41:09;24.50;52.10
16744;DHT22;71724;-33.900;151.182;2023-11-18T01:43:36;24.50;52.60
16744;DHT22;71724;-33.900;151.182;2023-11-18T01:46:08;24.50;52.60
16744;DHT22;71724;-33.900;151.182;2023-11-18T01:48:39;24.60;53.00
16744;DHT22;71724;-33.900;151.182;2023-11-18T01:51:09;24.70;51.40
16744;DHT22;71724;-33.900;151.182;2023-11-18T01:53:37;24.70;51.90
16744;DHT22;71724;-33.900;151.182;2023-11-18T01:56:08;24.70;51.90
16744;DHT22;71724;-33.900;151.182;2023-11-18T01:58:36;24.80;51.20
16744;DHT22;71724;-33.900;151.182;2023-11-18T02:01:04;24.70;51.90
16744;DHT22;71724;-33.900;151.182;2023-11-18T02:03:35;24.70;51.30
16744;DHT22;71724;-33.900;151.182;2023-11-18T02:06:03;24.80;51.00
16744;DHT22;71724;-33.900;151.182;2023-11-18T02:08:34;24.80;50.70
16744;DHT22;71724;-33.900;151.182;2023-11-18T02:11:28;24.80;51.10
16744;DHT22;71724;-33.900;151.182;2023-11-18T02:14:00;24.70;51.40
16744;DHT22;71724;-33.900;151.182;2023-11-18T02:16:32;24.60;51.60
16744;DHT22;71724;-33.900;151.182;2023-11-18T02:19:00;24.60;51.40
16744;DHT22;71724;-33.900;151.182;2023-11-18T02:21:30;24.50;52.00
16744;DHT22;71724;-33.900;151.182;2023-11-18T02:24:00;24.50;52.00
16744;DHT22;71724;-33.900;151.182;2023-11-18T02:26:28;24.50;52.00
16744;DHT22;71724;-33.900;151.182;2023-11-18T02:28:55;24.60;52.10
16744;DHT22;71724;-33.900;151.182;2023-11-18T02:31:33;24.60;51.70
16744;DHT22;71724;-33.900;151.182;2023-11-18T02:34:14;24.50;52.10
16744;DHT22;71724;-33.900;151.182;2023-11-18T02:36:48;24.50;52.60
16744;DHT22;71724;-33.900;151.182;2023-11-18T02:39:27;24.50;52.40
16744;DHT22;71724;-33.900;151.182;2023-11-18T02:41:59;24.50;52.90
16744;DHT22;71724;-33.900;151.182;2023-11-18T02:44:30;24.50;52.50
16744;DHT22;71724;-33.900;151.182;2023-11-18T02:46:58;24.50;52.60
16744;DHT22;71724;-33.900;151.182;2023-11-18T02:49:26;24.40;52.30
16744;DHT22;71724;-33.900;151.182;2023-11-18T02:51:54;24.40;52.50
16744;DHT22;71724;-33.900;151.182;2023-11-18T02:54:22;24.40;52.90
16744;DHT22;71724;-33.900;151.182;2023-11-18T02:56:50;24.40;52.30
16744;DHT22;71724;-33.900;151.182;2023-11-18T02:59:17;24.40;52.40
16744;DHT22;71724;-33.900;151.182;2023-11-18T03:01:48;24.30;52.60
16744;DHT22;71724;-33.900;151.182;2023-11-18T03:04:15;24.30;52.90
16744;DHT22;71724;-33.900;151.182;2023-11-18T03:06:45;24.40;52.40
16744;DHT22;71724;-33.900;151.182;2023-11-18T03:09:13;24.40;52.50
16744;DHT22;71724;-33.900;151.182;2023-11-18T03:11:40;24.50;52.70
16744;DHT22;71724;-33.900;151.182;2023-11-18T03:14:07;24.50;52.90
16744;DHT22;71724;-33.900;151.182;2023-11-18T03:16:37;24.50;52.90
16744;DHT22;71724;-33.900;151.182;2023-11-18T03:19:05;24.50;53.20
16744;DHT22;71724;-33.900;151.182;2023-11-18T03:21:33;24.60;53.20
16744;DHT22;71724;-33.900;151.182;2023-11-18T03:24:00;24.60;52.80
16744;DHT22;71724;-33.900;151.182;2023-11-18T03:26:28;24.60;52.80
16744;DHT22;71724;-33.900;151.182;2023-11-18T03:28:55;24.60;52.20
16744;DHT22;71724;-33.900;151.182;2023-11-18T03:31:22;24.60;52.00
16744;DHT22;71724;-33.900;151.182;2023-11-18T03:33:50;24.50;52.00
16744;DHT22;71724;-33.900;151.182;2023-11-18T03:36:18;24.40;52.50
16744;DHT22;71724;-33.900;151.182;2023-11-18T03:38:45;24.40;52.70
16744;DHT22;71724;-33.900;151.182;2023-11-18T03:41:14;24.30;52.80
16744;DHT22;71724;-33.900;151.182;2023-11-18T03:43:42;24.30;52.70
16744;DHT22;71724;-33.900;151.182;2023-11-18T03:46:09;24.30;52.50
16744;DHT22;71724;-33.900;151.182;2023-11-18T03:48:37;24.30;52.70
16744;DHT22;71724;-33.900;151.182;2023-11-18T03:51:04;24.30;52.40
16744;DHT22;71724;-33.900;151.182;2023-11-18T03:53:32;24.20;52.80
16744;DHT22;71724;-33.900;151.182;2023-11-18T03:56:00;24.30;52.90
16744;DHT22;71724;-33.900;151.182;2023-11-18T03:58:29;24.30;52.60
16744;DHT22;71724;-33.900;151.182;2023-11-18T04:00:56;24.30;53.20
16744;DHT22;71724;-33.900;151.182;2023-11-18T04:03:24;24.30;52.70
16744;DHT22;71724;-33.900;151.182;2023-11-18T04:05:51;24.20;53.30
16744;DHT22;71724;-33.900;151.182;2023-11-18T04:08:18;24.30;53.40
16744;DHT22;71724;-33.900;151.182;2023-11-18T04:10:46;24.30;53.00
16744;DHT22;71724;-33.900;151.182;2023-11-18T04:13:13;24.20;52.90
16744;DHT22;71724;-33.900;151.182;2023-11-18T04:15:40;24.20;53.30
16744;DHT22;71724;-33.900;151.182;2023-11-18T04:18:08;24.30;52.70
16744;DHT22;71724;-33.900;151.182;2023-11-18T04:20:35;24.20;52.90
16744;DHT22;71724;-33.900;151.182;2023-11-18T04:23:03;24.20;52.60
16744;DHT22;71724;-33.900;151.182;2023-11-18T04:25:31;24.30;52.70
16744;DHT22;71724;-33.900;151.182;2023-11-18T04:27:58;24.20;51.80
16744;DHT22;71724;-33.900;151.182;2023-11-18T04:30:30;24.20;51.80
16744;DHT22;71724;-33.900;151.182;2023-11-18T04:32:58;24.20;51.80
16744;DHT22;71724;-33.900;151.182;2023-11-18T04:35:27;24.20;52.20
16744;DHT22;71724;-33.900;151.182;2023-11-18T04:37:54;24.20;52.00
16744;DHT22;71724;-33.900;151.182;2023-11-18T04:40:21;24.10;51.10
16744;DHT22;71724;-33.900;151.182;2023-11-18T04:42:49;24.00;52.10
16744;DHT22;71724;-33.900;151.182;2023-11-18T04:45:17;24.00;52.00
16744;DHT22;71724;-33.900;151.182;2023-11-18T04:47:44;23.90;52.00
16744;DHT22;71724;-33.900;151.182;2023-11-18T04:50:16;23.90;52.20
16744;DHT22;71724;-33.900;151.182;2023-11-18T04:52:43;23.80;51.80
16744;DHT22;71724;-33.900;151.182;2023-11-18T04:55:11;23.80;52.60
16744;DHT22;71724;-33.900;151.182;2023-11-18T04:57:39;23.70;52.10
16744;DHT22;71724;-33.900;151.182;2023-11-18T05:00:07;23.70;52.10
16744;DHT22;71724;-33.900;151.182;2023-11-18T05:02:38;23.70;52.30
16744;DHT22;71724;-33.900;151.182;2023-11-18T05:05:06;23.70;53.30
16744;DHT22;71724;-33.900;151.182;2023-11-18T05:07:34;23.80;53.20
16744;DHT22;71724;-33.900;151.182;2023-11-18T05:10:02;23.80;52.90
16744;DHT22;71724;-33.900;151.182;2023-11-18T05:12:36;23.80;52.70
16744;DHT22;71724;-33.900;151.182;2023-11-18T05:15:05;23.80;52.30
16744;DHT22;71724;-33.900;151.182;2023-11-18T05:17:35;23.80;53.50
16744;DHT22;71724;-33.900;151.182;2023-11-18T05:20:07;23.80;54.10
16744;DHT22;71724;-33.900;151.182;2023-11-18T05:22:35;23.80;53.50
16744;DHT22;71724;-33.900;151.182;2023-11-18T05:25:04;23.70;53.20
16744;DHT22;71724;-33.900;151.182;2023-11-18T05:27:31;23.70;52.60
16744;DHT22;71724;-33.900;151.182;2023-11-18T05:30:00;23.70;53.10
16744;DHT22;71724;-33.900;151.182;2023-11-18T05:32:29;23.70;53.30
16744;DHT22;71724;-33.900;151.182;2023-11-18T05:35:00;23.70;53.50
16744;DHT22;71724;-33.900;151.182;2023-11-18T05:37:27;23.70;53.10
16744;DHT22;71724;-33.900;151.182;2023-11-18T05:39:56;23.70;53.50
16744;DHT22;71724;-33.900;151.182;2023-11-18T05:42:35;23.60;52.80
16744;DHT22;71724;-33.900;151.182;2023-11-18T05:45:04;23.70;53.80
16744;DHT22;71724;-33.900;151.182;2023-11-18T05:47:34;23.60;53.10
16744;DHT22;71724;-33.900;151.182;2023-11-18T05:50:05;23.60;53.20
16744;DHT22;71724;-33.900;151.182;2023-11-18T05:52:32;23.60;53.20
16744;DHT22;71724;-33.900;151.182;2023-11-18T05:55:01;23.60;53.90
16744;DHT22;71724;-33.900;151.182;2023-11-18T05:57:30;23.60;53.60
16744;DHT22;71724;-33.900;151.182;2023-11-18T05:59:58;23.70;53.80
16744;DHT22;71724;-33.900;151.182;2023-11-18T06:02:25;23.70;53.50
16744;DHT22;71724;-33.900;151.182;2023-11-18T06:04:56;23.70;53.30
16744;DHT22;71724;-33.900;151.182;2023-11-18T06:07:23;23.70;53.40
16744;DHT22;71724;-33.900;151.182;2023-11-18T06:09:51;23.70;53.50
16744;DHT22;71724;-33.900;151.182;2023-11-18T06:12:18;23.70;53.60
16744;DHT22;71724;-33.900;151.182;2023-11-18T06:14:46;23.70;53.40
16744;DHT22;71724;-33.900;151.182;2023-11-18T06:17:15;23.70;53.20
16744;DHT22;71724;-33.900;151.182;2023-11-18T06:19:43;23.70;53.30
16744;DHT22;71724;-33.900;151.182;2023-11-18T06:22:10;23.70;53.40
16744;DHT22;71724;-33.900;151.182;2023-11-18T06:24:37;23.70;53.30
16744;DHT22;71724;-33.900;151.182;2023-11-18T06:27:06;23.70;53.50
16744;DHT22;71724;-33.900;151.182;2023-11-18T06:29:36;23.70;53.00
16744;DHT22;71724;-33.900;151.182;2023-11-18T06:32:04;23.70;53.60
16744;DHT22;71724;-33.900;151.182;2023-11-18T06:34:32;23.60;54.00
16744;DHT22;71724;-33.900;151.182;2023-11-18T06:37:00;23.60;54.00
16744;DHT22;71724;-33.900;151.182;2023-11-18T06:39:27;23.60;54.50
16744;DHT22;71724;-33.900;151.182;2023-11-18T06:41:57;23.70;54.50
16744;DHT22;71724;-33.900;151.182;2023-11-18T06:44:25;23.70;54.50
16744;DHT22;71724;-33.900;151.182;2023-11-18T06:46:53;23.60;54.20
16744;DHT22;71724;-33.900;151.182;2023-11-18T06:49:21;23.60;54.00
16744;DHT22;71724;-33.900;151.182;2023-11-18T06:51:48;23.60;53.60
16744;DHT22;71724;-33.900;151.182;2023-11-18T06:54:17;23.60;53.70
16744;DHT22;71724;-33.900;151.182;2023-11-18T06:56:44;23.60;54.20
16744;DHT22;71724;-33.900;151.182;2023-11-18T06:59:13;23.70;54.10
16744;DHT22;71724;-33.900;151.182;2023-11-18T07:01:42;23.70;54.10
16744;DHT22;71724;-33.900;151.182;2023-11-18T07:04:10;23.70;54.60
16744;DHT22;71724;-33.900;151.182;2023-11-18T07:06:38;23.60;54.30
16744;DHT22;71724;-33.900;151.182;2023-11-18T07:09:09;23.70;53.60
16744;DHT22;71724;-33.900;151.182;2023-11-18T07:11:40;23.60;53.80
16744;DHT22;71724;-33.900;151.182;2023-11-18T07:14:09;23.60;54.20
16744;DHT22;71724;-33.900;151.182;2023-11-18T07:16:38;23.60;54.30
16744;DHT22;71724;-33.900;151.182;2023-11-18T07:19:06;23.50;54.50
16744;DHT22;71724;-33.900;151.182;2023-11-18T07:21:34;23.40;54.60
16744;DHT22;71724;-33.900;151.182;2023-11-18T07:24:02;23.30;54.50
16744;DHT22;71724;-33.900;151.182;2023-11-18T07:26:29;23.30;54.60
16744;DHT22;71724;-33.900;151.182;2023-11-18T07:28:56;23.20;55.00
16744;DHT22;71724;-33.900;151.182;2023-11-18T07:31:24;23.20;54.90
16744;DHT22;71724;-33.900;151.182;2023-11-18T07:33:51;23.00;55.30
16744;DHT22;71724;-33.900;151.182;2023-11-18T07:36:19;23.00;55.60
16744;DHT22;71724;-33.900;151.182;2023-11-18T07:38:47;22.90;55.80
16744;DHT22;71724;-33.900;151.182;2023-11-18T07:41:14;22.80;56.40
16744;DHT22;71724;-33.900;151.182;2023-11-18T07:43:51;22.80;56.20
16744;DHT22;71724;-33.900;151.182;2023-11-18T07:46:25;22.70;56.60
16744;DHT22;71724;-33.900;151.182;2023-11-18T07:48:53;22.50;56.30
16744;DHT22;71724;-33.900;151.182;2023-11-18T07:51:20;22.50;56.60
16744;DHT22;71724;-33.900;151.182;2023-11-18T07:53:51;22.40;56.80
16744;DHT22;71724;-33.900;151.182;2023-11-18T07:56:22;22.30;57.00
16744;DHT22;71724;-33.900;151.182;2023-11-18T07:58:49;22.20;56.90
16744;DHT22;71724;-33.900;151.182;2023-11-18T08:01:18;22.20;56.80
16744;DHT22;71724;-33.900;151.182;2023-11-18T08:03:47;22.10;56.70
16744;DHT22;71724;-33.900;151.182;2023-11-18T08:06:15;22.00;56.90
16744;DHT22;71724;-33.900;151.182;2023-11-18T08:08:43;21.90;57.40
16744;DHT22;71724;-33.900;151.182;2023-11-18T08:11:14;21.80;57.30
16744;DHT22;71724;-33.900;151.182;2023-11-18T08:13:41;21.80;57.80
16744;DHT22;71724;-33.900;151.182;2023-11-18T08:16:11;21.80;57.80
16744;DHT22;71724;-33.900;151.182;2023-11-18T08:18:42;21.70;58.10
16744;DHT22;71724;-33.900;151.182;2023-11-18T08:21:11;21.70;57.40
16744;DHT22;71724;-33.900;151.182;2023-11-18T08:23:39;21.60;57.60
16744;DHT22;71724;-33.900;151.182;2023-11-18T08:26:07;21.60;57.90
16744;DHT22;71724;-33.900;151.182;2023-11-18T08:28:34;21.50;58.40
16744;DHT22;71724;-33.900;151.182;2023-11-18T08:31:01;21.40;58.80
16744;DHT22;71724;-33.900;151.182;2023-11-18T08:33:32;21.30;59.60
16744;DHT22;71724;-33.900;151.182;2023-11-18T08:36:00;21.30;59.60
16744;DHT22;71724;-33.900;151.182;2023-11-18T08:38:28;21.30;60.10
16744;DHT22;71724;-33.900;151.182;2023-11-18T08:40:56;21.20;60.30
16744;DHT22;71724;-33.900;151.182;2023-11-18T08:43:23;21.20;60.60
16744;DHT22;71724;-33.900;151.182;2023-11-18T08:45:52;21.20;60.40
16744;DHT22;71724;-33.900;151.182;2023-11-18T08:48:19;21.20;60.30
16744;DHT22;71724;-33.900;151.182;2023-11-18T08:50:46;21.10;60.50
16744;DHT22;71724;-33.900;151.182;2023-11-18T08:53:14;21.20;60.10
16744;DHT22;71724;-33.900;151.182;2023-11-18T08:55:48;21.10;60.60
16744;DHT22;71724;-33.900;151.182;2023-11-18T08:58:21;21.00;60.50
16744;DHT22;71724;-33.900;151.182;2023-11-18T09:00:54;20.90;60.50
16744;DHT22;71724;-33.900;151.182;2023-11-18T09:03:23;20.90;60.50
16744;DHT22;71724;-33.900;151.182;2023-11-18T09:06:16;21.00;60.30
16744;DHT22;71724;-33.900;151.182;2023-11-18T09:08:48;20.90;60.40
16744;DHT22;71724;-33.900;151.182;2023-11-18T09:11:24;20.80;60.70
16744;DHT22;71724;-33.900;151.182;2023-11-18T09:13:56;20.80;60.90
16744;DHT22;71724;-33.900;151.182;2023-11-18T09:16:26;20.80;60.90
16744;DHT22;71724;-33.900;151.182;2023-11-18T09:18:58;20.80;61.30
16744;DHT22;71724;-33.900;151.182;2023-11-18T09:21:26;20.70;61.50
16744;DHT22;71724;-33.900;151.182;2023-11-18T09:23:55;20.70;61.40
16744;DHT22;71724;-33.900;151.182;2023-11-18T09:26:32;20.70;61.40
16744;DHT22;71724;-33.900;151.182;2023-11-18T09:28:59;20.70;61.70
16744;DHT22;71724;-33.900;151.182;2023-11-18T09:31:28;20.70;61.50
16744;DHT22;71724;-33.900;151.182;2023-11-18T09:33:55;20.60;62.10
16744;DHT22;71724;-33.900;151.182;2023-11-18T09:36:24;20.60;62.10
16744;DHT22;71724;-33.900;151.182;2023-11-18T09:38:55;20.60;61.50
16744;DHT22;71724;-33.900;151.182;2023-11-18T09:41:23;20.60;61.80
16744;DHT22;71724;-33.900;151.182;2023-11-18T09:43:54;20.60;61.60
16744;DHT22;71724;-33.900;151.182;2023-11-18T09:46:25;20.50;62.10
16744;DHT22;71724;-33.900;151.182;2023-11-18T09:51:37;20.50;62.00
16744;DHT22;71724;-33.900;151.182;2023-11-18T09:54:12;20.50;61.70
16744;DHT22;71724;-33.900;151.182;2023-11-18T10:02:28;20.40;62.00
16744;DHT22;71724;-33.900;151.182;2023-11-18T10:04:57;20.40;62.30
16744;DHT22;71724;-33.900;151.182;2023-11-18T10:07:27;20.40;62.20
16744;DHT22;71724;-33.900;151.182;2023-11-18T10:09:59;20.30;61.80
16744;DHT22;71724;-33.900;151.182;2023-11-18T10:12:28;20.30;62.20
16744;DHT22;71724;-33.900;151.182;2023-11-18T10:14:56;20.30;62.40
16744;DHT22;71724;-33.900;151.182;2023-11-18T10:17:25;20.30;62.70
16744;DHT22;71724;-33.900;151.182;2023-11-18T10:19:58;20.30;62.20
16744;DHT22;71724;-33.900;151.182;2023-11-18T10:22:38;20.30;62.10
16744;DHT22;71724;-33.900;151.182;2023-11-18T10:25:07;20.30;62.50
16744;DHT22;71724;-33.900;151.182;2023-11-18T10:27:34;20.30;62.20
16744;DHT22;71724;-33.900;151.182;2023-11-18T10:30:06;20.30;62.20
16744;DHT22;71724;-33.900;151.182;2023-11-18T10:33:04;20.30;62.60
16744;DHT22;71724;-33.900;151.182;2023-11-18T10:35:35;20.30;62.70
16744;DHT22;71724;-33.900;151.182;2023-11-18T10:38:03;20.30;62.50
16744;DHT22;71724;-33.900;151.182;2023-11-18T10:40:34;20.30;62.40
16744;DHT22;71724;-33.900;151.182;2023-11-18T10:43:04;20.30;62.60
16744;DHT22;71724;-33.900;151.182;2023-11-18T10:45:36;20.30;62.50
16744;DHT22;71724;-33.900;151.182;2023-11-18T10:48:07;20.30;62.60
16744;DHT22;71724;-33.900;151.182;2023-11-18T10:50:35;20.20;62.70
16744;DHT22;71724;-33.900;151.182;2023-11-18T10:53:06;20.20;63.00
16744;DHT22;71724;-33.900;151.182;2023-11-18T10:55:38;20.20;63.30
16744;DHT22;71724;-33.900;151.182;2023-11-18T10:58:07;20.20;63.10
16744;DHT22;71724;-33.900;151.182;2023-11-18T11:00:51;20.20;63.20
16744;DHT22;71724;-33.900;151.182;2023-11-18T11:03:22;20.20;62.90
16744;DHT22;71724;-33.900;151.182;2023-11-18T11:05:58;20.20;63.20
16744;DHT22;71724;-33.900;151.182;2023-11-18T11:08:26;20.20;63.20
16744;DHT22;71724;-33.900;151.182;2023-11-18T11:10:57;20.20;63.30
16744;DHT22;71724;-33.900;151.182;2023-11-18T11:13:28;20.10;63.60
16744;DHT22;71724;-33.900;151.182;2023-11-18T11:16:03;20.20;62.90
16744;DHT22;71724;-33.900;151.182;2023-11-18T11:18:37;20.10;63.10
16744;DHT22;71724;-33.900;151.182;2023-11-18T11:21:25;20.10;63.20
16744;DHT22;71724;-33.900;151.182;2023-11-18T11:23:57;20.10;63.30
16744;DHT22;71724;-33.900;151.182;2023-11-18T11:29:36;20.10;63.60
16744;DHT22;71724;-33.900;151.182;2023-11-18T11:35:10;20.00;63.50
16744;DHT22;71724;-33.900;151.182;2023-11-18T11:37:45;20.00;63.50
16744;DHT22;71724;-33.900;151.182;2023-11-18T11:40:14;20.00;63.30
16744;DHT22;71724;-33.900;151.182;2023-11-18T11:42:50;20.00;63.00
16744;DHT22;71724;-33.900;151.182;2023-11-18T11:45:31;20.00;63.00
16744;DHT22;71724;-33.900;151.182;2023-11-18T11:48:01;20.00;63.00
16744;DHT22;71724;-33.900;151.182;2023-11-18T11:54:21;20.00;63.20
16744;DHT22;71724;-33.900;151.182;2023-11-18T11:56:51;20.10;63.20
16744;DHT22;71724;-33.900;151.182;2023-11-18T12:02:13;20.00;63.30
16744;DHT22;71724;-33.900;151.182;2023-11-18T12:04:46;20.00;63.30
16744;DHT22;71724;-33.900;151.182;2023-11-18T12:07:20;20.00;63.50
16744;DHT22;71724;-33.900;151.182;2023-11-18T12:09:59;20.00;63.60
16744;DHT22;71724;-33.900;151.182;2023-11-18T12:12:27;20.00;63.70
16744;DHT22;71724;-33.900;151.182;2023-11-18T12:15:00;20.00;63.50
16744;DHT22;71724;-33.900;151.182;2023-11-18T12:20:43;20.00;63.60
16744;DHT22;71724;-33.900;151.182;2023-11-18T12:23:14;20.00;63.60
16744;DHT22;71724;-33.900;151.182;2023-11-18T12:25:45;20.00;64.00
16744;DHT22;71724;-33.900;151.182;2023-11-18T12:28:16;20.00;63.80
16744;DHT22;71724;-33.900;151.182;2023-11-18T12:30:48;20.00;63.80
16744;DHT22;71724;-33.900;151.182;2023-11-18T12:33:20;20.00;64.00
16744;DHT22;71724;-33.900;151.182;2023-11-18T12:41:37;20.00;64.60
16744;DHT22;71724;-33.900;151.182;2023-11-18T12:44:47;19.90;64.80
16744;DHT22;71724;-33.900;151.182;2023-11-18T12:47:21;20.00;64.80
16744;DHT22;71724;-33.900;151.182;2023-11-18T12:49:55;19.90;64.60
16744;DHT22;71724;-33.900;151.182;2023-11-18T12:52:23;19.90;64.90
16744;DHT22;71724;-33.900;151.182;2023-11-18T12:54:50;19.90;64.80
16744;DHT22;71724;-33.900;151.182;2023-11-18T12:57:28;19.80;64.90
16744;DHT22;71724;-33.900;151.182;2023-11-18T13:00:03;19.80;65.00
16744;DHT22;71724;-33.900;151.182;2023-11-18T13:02:32;19.80;65.20
16744;DHT22;71724;-33.900;151.182;2023-11-18T13:04:59;19.80;65.30
16744;DHT22;71724;-33.900;151.182;2023-11-18T13:07:32;19.80;65.10
16744;DHT22;71724;-33.900;151.182;2023-11-18T13:10:00;19.80;65.30
16744;DHT22;71724;-33.900;151.182;2023-11-18T13:12:28;19.80;65.40
16744;DHT22;71724;-33.900;151.182;2023-11-18T13:14:55;19.80;65.30
16744;DHT22;71724;-33.900;151.182;2023-11-18T13:17:23;19.70;65.30
16744;DHT22;71724;-33.900;151.182;2023-11-18T13:19:54;19.70;65.60
16744;DHT22;71724;-33.900;151.182;2023-11-18T13:22:24;19.70;65.90
16744;DHT22;71724;-33.900;151.182;2023-11-18T13:24:54;19.70;65.90
16744;DHT22;71724;-33.900;151.182;2023-11-18T13:27:21;19.70;65.80
16744;DHT22;71724;-33.900;151.182;2023-11-18T13:29:49;19.70;66.00
16744;DHT22;71724;-33.900;151.182;2023-11-18T13:32:18;19.70;66.20
16744;DHT22;71724;-33.900;151.182;2023-11-18T13:34:49;19.70;66.70
16744;DHT22;71724;-33.900;151.182;2023-11-18T13:37:19;19.70;66.40
16744;DHT22;71724;-33.900;151.182;2023-11-18T13:39:55;19.70;66.10
16744;DHT22;71724;-33.900;151.182;2023-11-18T13:42:27;19.70;66.20
16744;DHT22;71724;-33.900;151.182;2023-11-18T13:45:07;19.70;66.30
16744;DHT22;71724;-33.900;151.182;2023-11-18T13:47:36;19.60;66.50
16744;DHT22;71724;-33.900;151.182;2023-11-18T13:50:12;19.60;66.50
16744;DHT22;71724;-33.900;151.182;2023-11-18T13:52:40;19.60;66.90
16744;DHT22;71724;-33.900;151.182;2023-11-18T13:55:08;19.60;66.40
16744;DHT22;71724;-33.900;151.182;2023-11-18T13:57:35;19.60;66.20
16744;DHT22;71724;-33.900;151.182;2023-11-18T14:00:03;19.60;66.20
16744;DHT22;71724;-33.900;151.182;2023-11-18T14:02:32;19.50;66.60
16744;DHT22;71724;-33.900;151.182;2023-11-18T14:05:00;19.60;66.90
16744;DHT22;71724;-33.900;151.182;2023-11-18T14:07:28;19.50;66.60
16744;DHT22;71724;-33.900;151.182;2023-11-18T14:09:55;19.50;66.90
16744;DHT22;71724;-33.900;151.182;2023-11-18T14:12:23;19.50;67.10
16744;DHT22;71724;-33.900;151.182;2023-11-18T14:14:54;19.50;66.90
16744;DHT22;71724;-33.900;151.182;2023-11-18T14:17:21;19.40;66.90
16744;DHT22;71724;-33.900;151.182;2023-11-18T14:19:48;19.40;67.00
16744;DHT22;71724;-33.900;151.182;2023-11-18T14:22:18;19.30;67.10
16744;DHT22;71724;-33.900;151.182;2023-11-18T14:24:46;19.30;67.60
16744;DHT22;71724;-33.900;151.182;2023-11-18T14:27:13;19.30;67.50
16744;DHT22;71724;-33.900;151.182;2023-11-18T14:29:41;19.20;67.70
16744;DHT22;71724;-33.900;151.182;2023-11-18T14:32:08;19.20;67.60
16744;DHT22;71724;-33.900;151.182;2023-11-18T14:34:37;19.20;67.70
16744;DHT22;71724;-33.900;151.182;2023-11-18T14:37:04;19.10;68.00
16744;DHT22;71724;-33.900;151.182;2023-11-18T14:39:33;19.00;68.20
16744;DHT22;71724;-33.900;151.182;2023-11-18T14:42:02;19.00;68.40
16744;DHT22;71724;-33.900;151.182;2023-11-18T14:44:30;19.00;68.50
16744;DHT22;71724;-33.900;151.182;2023-11-18T14:46:57;18.90;68.70
16744;DHT22;71724;-33.900;151.182;2023-11-18T14:49:26;18.90;68.90
16744;DHT22;71724;-33.900;151.182;2023-11-18T14:51:54;18.80;69.00
16744;DHT22;71724;-33.900;151.182;2023-11-18T14:54:22;18.80;69.20
16744;DHT22;71724;-33.900;151.182;2023-11-18T14:56:49;18.80;69.60
16744;DHT22;71724;-33.900;151.182;2023-11-18T14:59:16;18.80;69.90
16744;DHT22;71724;-33.900;151.182;2023-11-18T15:01:47;18.80;70.10
16744;DHT22;71724;-33.900;151.182;2023-11-18T15:04:14;18.80;70.00
16744;DHT22;71724;-33.900;151.182;2023-11-18T15:06:42;18.80;70.00
16744;DHT22;71724;-33.900;151.182;2023-11-18T15:09:10;18.70;70.00
16744;DHT22;71724;-33.900;151.182;2023-11-18T15:11:37;18.70;70.00
16744;DHT22;71724;-33.900;151.182;2023-11-18T15:14:04;18.70;70.00
16744;DHT22;71724;-33.900;151.182;2023-11-18T15:16:34;18.70;70.20
16744;DHT22;71724;-33.900;151.182;2023-11-18T15:19:01;18.70;70.60
16744;DHT22;71724;-33.900;151.182;2023-11-18T15:21:29;18.70;70.90
16744;DHT22;71724;-33.900;151.182;2023-11-18T15:23:57;18.60;71.40
16744;DHT22;71724;-33.900;151.182;2023-11-18T15:26:28;18.70;71.40
16744;DHT22;71724;-33.900;151.182;2023-11-18T15:28:57;18.60;71.00
16744;DHT22;71724;-33.900;151.182;2023-11-18T15:31:26;18.60;70.80